createdAt,value
2023-11-10T00:01:59.146Z,64.12
2023-11-10T00:04:44.361Z,64.11
2023-11-10T00:07:29.377Z,63.90
2023-11-10T00:10:14.467Z,63.45
2023-11-10T00:12:59.698Z,63.23
2023-11-10T00:15:44.843Z,63.15
2023-11-10T00:18:29.876Z,62.65
2023-11-10T00:21:15.003Z,62.83
2023-11-10T00:23:59.920Z,62.72
2023-11-10T00:26:45.037Z,63.12
2023-11-10T00:29:30.024Z,62.29
2023-11-10T00:32:15.239Z,61.85
2023-11-10T00:35:00.207Z,63.22
2023-11-10T00:37:45.365Z,62.38
2023-11-10T00:40:30.486Z,62.35
2023-11-10T00:43:15.661Z,62.75
2023-11-10T00:46:00.798Z,62.80
2023-11-10T00:48:46.197Z,63.05
2023-11-10T00:51:30.927Z,62.49
2023-11-10T00:54:16.003Z,62.65
2023-11-10T00:57:01.191Z,63.07
2023-11-10T00:59:46.156Z,63.13
2023-11-10T01:02:31.247Z,63.23
2023-11-10T01:05:16.465Z,63.39
2023-11-10T01:08:01.426Z,63.33
2023-11-10T01:10:46.719Z,62.97
2023-11-10T01:13:31.753Z,62.88
2023-11-10T01:16:16.886Z,61.95
2023-11-10T01:19:01.925Z,61.88
2023-11-10T01:21:47.100Z,62.28
2023-11-10T01:24:32.237Z,62.43
2023-11-10T01:27:17.227Z,62.59
2023-11-10T01:30:02.433Z,63.15
2023-11-10T01:32:47.505Z,63.48
2023-11-10T01:35:32.584Z,63.50
2023-11-10T01:38:17.652Z,63.03
2023-11-10T01:41:02.925Z,62.43
2023-11-10T01:43:47.982Z,61.95
2023-11-10T01:46:32.968Z,62.78
2023-11-10T01:49:18.229Z,61.89
2023-11-10T01:52:03.149Z,61.51
2023-11-10T01:54:48.521Z,61.66
2023-11-10T01:57:33.519Z,61.44
2023-11-10T02:00:18.843Z,61.11
2023-11-10T02:03:03.864Z,60.91
2023-11-10T02:05:48.926Z,60.79
2023-11-10T02:08:33.948Z,61.49
2023-11-10T02:11:18.914Z,62.17
2023-11-10T02:14:06.944Z,63.04
2023-11-10T02:16:53.433Z,64.01
2023-11-10T02:19:38.520Z,64.64
2023-11-10T02:22:23.789Z,64.43
2023-11-10T02:25:08.843Z,63.84
2023-11-10T02:27:54.026Z,63.71
2023-11-10T02:30:39.082Z,64.11
2023-11-10T02:33:24.312Z,64.22
2023-11-10T02:36:09.492Z,63.31
2023-11-10T02:38:54.352Z,63.86
2023-11-10T02:41:39.452Z,62.73
2023-11-10T02:44:24.726Z,62.76
2023-11-10T02:47:09.518Z,63.32
2023-11-10T02:49:54.543Z,63.41
2023-11-10T02:52:39.721Z,63.24
2023-11-10T02:55:24.724Z,63.69
2023-11-10T02:58:09.896Z,63.10
2023-11-10T03:00:54.913Z,63.24
2023-11-10T03:03:39.945Z,63.04
2023-11-10T03:06:25.345Z,62.98
2023-11-10T03:09:10.258Z,62.58
2023-11-10T03:11:55.476Z,62.99
2023-11-10T03:14:40.493Z,62.41
2023-11-10T03:17:25.831Z,62.34
2023-11-10T03:20:11.036Z,61.94
2023-11-10T03:22:56.175Z,62.04
2023-11-10T03:25:41.190Z,62.07
2023-11-10T03:28:26.294Z,61.99
2023-11-10T03:31:11.433Z,61.57
2023-11-10T03:33:56.651Z,61.31
2023-11-10T03:36:42.034Z,61.66
2023-11-10T03:39:27.245Z,61.59
2023-11-10T03:42:12.305Z,61.19
2023-11-10T03:44:57.436Z,61.98
2023-11-10T03:47:42.422Z,61.81
2023-11-10T03:50:27.441Z,61.64
2023-11-10T03:53:12.509Z,61.79
2023-11-10T03:55:57.679Z,62.72
2023-11-10T03:58:42.838Z,63.58
2023-11-10T04:01:27.946Z,63.46
2023-11-10T04:04:13.147Z,63.33
2023-11-10T04:06:58.277Z,63.37
2023-11-10T04:09:43.351Z,63.01
2023-11-10T04:12:28.426Z,63.92
2023-11-10T04:15:13.533Z,63.42
2023-11-10T04:17:58.512Z,63.75
2023-11-10T04:20:43.570Z,63.87
2023-11-10T04:23:28.851Z,64.22
2023-11-10T04:26:13.904Z,64.48
2023-11-10T04:28:59.152Z,65.07
2023-11-10T04:31:44.198Z,64.56
2023-11-10T04:34:29.251Z,65.76
2023-11-10T04:37:14.344Z,64.73
2023-11-10T04:39:59.395Z,64.15
2023-11-10T04:42:44.716Z,63.77
2023-11-10T04:45:29.659Z,64.44
2023-11-10T04:48:14.994Z,65.46
2023-11-10T04:51:00.098Z,66.53
2023-11-10T04:53:45.483Z,65.23
2023-11-10T04:56:30.649Z,65.87
2023-11-10T04:59:15.736Z,64.81
2023-11-10T05:02:00.831Z,65.21
2023-11-10T05:04:45.883Z,64.79
2023-11-10T05:07:31.054Z,65.44
2023-11-10T05:10:16.125Z,66.68
2023-11-10T05:13:01.251Z,66.04
2023-11-10T05:15:46.559Z,66.50
2023-11-10T05:21:19.861Z,66.55
2023-11-10T05:24:05.313Z,66.59
2023-11-10T05:26:50.519Z,66.12
2023-11-10T05:29:35.651Z,66.97
2023-11-10T05:32:20.731Z,67.14
2023-11-10T05:35:06.007Z,67.21
2023-11-10T05:37:51.062Z,66.95
2023-11-10T05:40:36.240Z,66.56
2023-11-10T05:43:21.212Z,66.43
2023-11-10T05:46:06.788Z,67.31
2023-11-10T05:48:51.683Z,67.08
2023-11-10T05:51:36.767Z,67.19
2023-11-10T05:54:21.808Z,67.14
2023-11-10T05:57:06.764Z,66.91
2023-11-10T05:59:51.936Z,66.87
2023-11-10T06:02:37.079Z,66.35
2023-11-10T06:05:22.223Z,66.32
2023-11-10T06:08:07.261Z,66.00
2023-11-10T06:10:52.535Z,66.39
2023-11-10T06:13:37.656Z,67.88
2023-11-10T06:16:22.614Z,67.96
2023-11-10T06:19:07.774Z,68.04
2023-11-10T06:21:53.005Z,69.36
2023-11-10T06:24:38.346Z,69.01
2023-11-10T06:27:23.260Z,68.44
2023-11-10T06:30:08.384Z,68.17
2023-11-10T06:32:53.632Z,68.15
2023-11-10T06:35:38.677Z,68.38
2023-11-10T06:38:23.851Z,68.15
2023-11-10T06:41:08.823Z,68.95
2023-11-10T06:43:54.086Z,68.82
2023-11-10T06:46:40.221Z,68.55
2023-11-10T06:49:25.050Z,69.43
2023-11-10T06:52:10.310Z,69.84
2023-11-10T06:54:55.721Z,69.97
2023-11-10T06:57:41.011Z,70.32
2023-11-10T07:00:25.981Z,70.44
2023-11-10T07:03:11.286Z,70.01
2023-11-10T07:05:56.275Z,71.21
2023-11-10T07:08:41.298Z,70.52
2023-11-10T07:11:26.532Z,70.03
2023-11-10T07:14:11.591Z,69.69
2023-11-10T07:16:56.845Z,70.18
2023-11-10T07:19:41.951Z,68.86
2023-11-10T07:22:27.103Z,68.50
2023-11-10T07:25:12.338Z,69.64
2023-11-10T07:27:59.707Z,69.29
2023-11-10T07:30:46.080Z,69.19
2023-11-10T07:33:31.070Z,68.79
2023-11-10T07:36:16.186Z,68.69
2023-11-10T07:39:01.378Z,68.15
2023-11-10T07:41:46.278Z,68.62
2023-11-10T07:44:31.562Z,68.88
2023-11-10T07:47:16.704Z,68.91
2023-11-10T07:50:02.074Z,70.25
2023-11-10T07:52:47.090Z,69.96
2023-11-10T07:55:32.240Z,70.50
2023-11-10T07:58:17.352Z,69.57
2023-11-10T08:01:02.525Z,69.57
2023-11-10T08:03:47.740Z,69.01
2023-11-10T08:06:32.717Z,69.42
2023-11-10T08:09:17.760Z,69.12
2023-11-10T08:12:02.733Z,68.61
2023-11-10T08:14:47.912Z,68.02
2023-11-10T08:17:32.945Z,68.29
2023-11-10T08:20:18.056Z,68.47
2023-11-10T08:23:03.338Z,68.32
2023-11-10T08:25:48.289Z,68.50
2023-11-10T08:28:33.446Z,68.59
2023-11-10T08:31:18.601Z,68.71
2023-11-10T08:34:03.903Z,68.49
2023-11-10T08:36:48.817Z,68.23
2023-11-10T08:39:33.965Z,68.16
2023-11-10T08:42:19.222Z,67.36
2023-11-10T08:45:04.365Z,68.08
2023-11-10T08:47:49.503Z,68.56
2023-11-10T08:50:34.652Z,69.57
2023-11-10T08:53:19.857Z,70.38
2023-11-10T08:56:05.099Z,69.68
2023-11-10T08:58:50.258Z,69.31
2023-11-10T09:01:38.557Z,68.75
2023-11-10T09:04:25.347Z,67.99
2023-11-10T09:07:10.704Z,68.16
2023-11-10T09:09:55.663Z,67.52
2023-11-10T09:12:40.664Z,67.09
2023-11-10T09:15:25.796Z,66.25
2023-11-10T09:18:10.944Z,66.19
2023-11-10T09:20:56.006Z,66.09
2023-11-10T09:23:41.060Z,65.88
2023-11-10T09:26:26.302Z,65.45
2023-11-10T09:29:11.533Z,65.65
2023-11-10T09:31:56.590Z,65.74
2023-11-10T09:34:41.769Z,65.47
2023-11-10T09:37:26.660Z,65.83
2023-11-10T09:40:11.977Z,66.14
2023-11-10T09:42:57.014Z,66.02
2023-11-10T09:45:42.121Z,66.06
2023-11-10T09:48:27.168Z,65.95
2023-11-10T09:51:12.229Z,65.80
2023-11-10T09:53:57.400Z,65.68
2023-11-10T09:56:42.469Z,65.20
2023-11-10T09:59:27.628Z,64.82
2023-11-10T10:02:12.590Z,64.73
2023-11-10T10:04:57.648Z,64.25
2023-11-10T10:07:42.642Z,63.93
2023-11-10T10:10:27.606Z,63.72
2023-11-10T10:13:12.765Z,63.43
2023-11-10T10:15:57.949Z,63.20
2023-11-10T10:18:43.083Z,62.79
2023-11-10T10:21:28.133Z,62.33
2023-11-10T10:24:13.435Z,61.53
2023-11-10T10:26:58.537Z,62.32
2023-11-10T10:29:43.565Z,61.60
2023-11-10T10:32:30.452Z,60.92
2023-11-10T10:35:16.474Z,60.14
2023-11-10T10:38:01.684Z,59.98
2023-11-10T10:40:46.723Z,61.25
2023-11-10T10:43:33.703Z,61.13
2023-11-10T10:46:28.464Z,62.07
2023-11-10T10:49:13.909Z,61.41
2023-11-10T10:51:58.786Z,61.97
2023-11-10T10:54:43.849Z,63.32
2023-11-10T10:57:29.151Z,64.77
2023-11-10T11:00:14.117Z,65.60
2023-11-10T11:02:59.596Z,65.04
2023-11-10T11:05:44.484Z,64.51
2023-11-10T11:08:29.652Z,64.28
2023-11-10T11:11:14.743Z,64.22
2023-11-10T11:13:59.919Z,64.08
2023-11-10T11:16:45.168Z,63.62
2023-11-10T11:19:30.110Z,63.37
2023-11-10T11:22:15.407Z,63.47
2023-11-10T11:25:00.486Z,63.43
2023-11-10T11:27:45.824Z,63.15
2023-11-10T11:30:31.100Z,62.91
2023-11-10T11:33:16.120Z,62.63
2023-11-10T11:36:01.268Z,62.61
2023-11-10T11:38:46.225Z,62.24
2023-11-10T11:41:31.513Z,62.22
2023-11-10T11:44:16.638Z,62.21
2023-11-10T11:47:02.002Z,61.94
2023-11-10T11:49:47.008Z,61.90
2023-11-10T11:52:32.156Z,61.82
2023-11-10T11:55:17.429Z,60.72
2023-11-10T11:58:02.637Z,60.44
2023-11-10T12:00:47.775Z,62.13
2023-11-10T12:03:32.901Z,61.46
2023-11-10T12:06:17.892Z,61.50
2023-11-10T12:09:02.755Z,61.61
2023-11-10T12:11:47.994Z,60.94
2023-11-10T12:14:33.194Z,60.85
2023-11-10T12:17:18.337Z,60.70
2023-11-10T12:20:03.463Z,59.85
2023-11-10T12:22:48.558Z,59.63
2023-11-10T12:25:33.794Z,58.72
2023-11-10T12:28:18.898Z,59.12
2023-11-10T12:31:04.128Z,58.76
2023-11-10T12:33:49.269Z,59.36
2023-11-10T12:36:34.321Z,59.70
2023-11-10T12:39:19.397Z,59.63
2023-11-10T12:42:04.497Z,59.88
2023-11-10T12:44:49.645Z,59.02
2023-11-10T12:47:34.618Z,58.95
2023-11-10T12:50:19.819Z,59.28
2023-11-10T12:53:04.851Z,61.52
2023-11-10T12:55:49.894Z,62.82
2023-11-10T12:58:34.952Z,63.46
2023-11-10T13:01:19.991Z,63.88
2023-11-10T13:04:05.428Z,65.48
2023-11-10T13:06:50.451Z,66.17
2023-11-10T13:09:35.813Z,67.30
2023-11-10T13:12:20.637Z,66.88
2023-11-10T13:15:05.775Z,67.19
2023-11-10T13:17:51.065Z,67.52
2023-11-10T13:20:36.537Z,68.97
2023-11-10T13:23:21.652Z,68.99
2023-11-10T13:26:06.778Z,69.27
2023-11-10T13:28:51.941Z,68.38
2023-11-10T13:31:36.997Z,67.75
2023-11-10T13:34:22.103Z,67.42
2023-11-10T13:37:07.459Z,67.48
2023-11-10T13:39:52.482Z,66.80
2023-11-10T13:42:37.714Z,65.93
2023-11-10T13:45:22.798Z,65.18
2023-11-10T13:48:08.028Z,66.00
2023-11-10T13:50:52.987Z,65.43
2023-11-10T13:53:38.140Z,65.15
2023-11-10T13:56:23.269Z,64.33
2023-11-10T13:59:08.471Z,64.23
2023-11-10T14:01:53.763Z,64.09
2023-11-10T14:04:38.867Z,63.89
2023-11-10T14:07:24.179Z,63.58
2023-11-10T14:10:09.296Z,63.15
2023-11-10T14:12:54.307Z,63.77
2023-11-10T14:15:39.666Z,63.79
2023-11-10T14:18:24.573Z,63.86
2023-11-10T14:21:09.760Z,64.86
2023-11-10T14:23:54.662Z,65.28
2023-11-10T14:26:39.785Z,65.58
2023-11-10T14:29:25.039Z,65.31
2023-11-10T14:32:10.848Z,64.90
2023-11-10T14:34:55.925Z,65.01
2023-11-10T14:37:41.102Z,65.17
2023-11-10T14:40:26.280Z,65.35
2023-11-10T14:43:11.379Z,65.64
2023-11-10T14:45:56.520Z,64.47
2023-11-10T14:48:41.399Z,64.27
2023-11-10T14:51:26.665Z,64.92
2023-11-10T14:54:11.842Z,65.21
2023-11-10T14:56:56.933Z,65.32
2023-11-10T14:59:42.252Z,66.22
2023-11-10T15:02:27.387Z,66.98
2023-11-10T15:05:12.538Z,66.66
2023-11-10T15:07:57.614Z,67.01
2023-11-10T15:10:42.746Z,67.14
2023-11-10T15:13:27.902Z,67.50
2023-11-10T15:16:13.065Z,67.20
2023-11-10T15:18:58.289Z,67.69
2023-11-10T15:21:43.390Z,66.19
2023-11-10T15:24:28.541Z,66.94
2023-11-10T15:27:13.570Z,67.18
2023-11-10T15:29:58.667Z,66.79
2023-11-10T15:32:43.800Z,66.23
2023-11-10T15:35:30.064Z,66.89
2023-11-10T15:38:15.214Z,66.80
2023-11-10T15:41:00.455Z,65.97
2023-11-10T15:43:45.637Z,66.14
2023-11-10T15:46:30.768Z,66.00
2023-11-10T15:49:15.868Z,66.57
2023-11-10T15:52:01.015Z,66.49
2023-11-10T15:54:48.924Z,66.83
2023-11-10T15:57:34.277Z,68.92
2023-11-10T16:00:21.841Z,68.67
2023-11-10T16:03:07.417Z,68.60
2023-11-10T16:05:52.646Z,67.04
2023-11-10T16:08:37.666Z,65.75
2023-11-10T16:11:22.921Z,65.60
2023-11-10T16:14:08.102Z,65.18
2023-11-10T16:16:53.071Z,65.13
2023-11-10T16:19:38.217Z,65.44
2023-11-10T16:22:23.190Z,65.99
2023-11-10T16:25:08.466Z,66.00
2023-11-10T16:27:53.543Z,65.40
2023-11-10T16:30:38.709Z,65.81
2023-11-10T16:33:23.989Z,66.44
2023-11-10T16:36:09.103Z,66.18
2023-11-10T16:38:54.252Z,66.95
2023-11-10T16:41:39.398Z,65.94
2023-11-10T16:44:24.697Z,66.22
2023-11-10T16:47:09.901Z,65.62
2023-11-10T16:49:54.836Z,65.44
2023-11-10T16:52:39.992Z,65.28
2023-11-10T16:55:25.148Z,64.95
2023-11-10T16:58:10.405Z,64.89
2023-11-10T17:00:55.430Z,64.99
2023-11-10T17:03:40.830Z,65.22
2023-11-10T17:06:25.610Z,63.46
2023-11-10T17:09:10.834Z,64.18
2023-11-10T17:11:55.812Z,63.97
2023-11-10T17:14:40.862Z,63.93
2023-11-10T17:17:25.919Z,64.12
2023-11-10T17:20:10.980Z,63.69
2023-11-10T17:22:56.222Z,63.67
2023-11-10T17:25:41.160Z,63.96
2023-11-10T17:28:26.229Z,62.73
2023-11-10T17:31:11.318Z,62.81
2023-11-10T17:33:56.490Z,61.92
2023-11-10T17:36:41.657Z,61.38
2023-11-10T17:39:26.594Z,60.12
2023-11-10T17:42:11.961Z,60.28
2023-11-10T17:44:56.914Z,59.75
2023-11-10T17:47:42.213Z,59.41
2023-11-10T17:50:27.136Z,59.89
2023-11-10T17:53:12.431Z,60.81
2023-11-10T17:55:57.506Z,60.77
2023-11-10T17:58:42.573Z,61.65
2023-11-10T18:01:28.064Z,61.45
2023-11-10T18:04:13.097Z,61.66
2023-11-10T18:06:58.360Z,61.18
2023-11-10T18:09:43.388Z,61.32
2023-11-10T18:12:28.613Z,62.52
2023-11-10T18:15:13.752Z,62.33
2023-11-10T18:17:58.928Z,61.17
2023-11-10T18:20:44.015Z,61.25
2023-11-10T18:23:29.018Z,60.12
2023-11-10T18:26:14.269Z,60.15
2023-11-10T18:28:59.355Z,58.67
2023-11-10T18:31:44.494Z,59.11
2023-11-10T18:34:29.790Z,58.25
2023-11-10T18:37:14.734Z,59.37
2023-11-10T18:39:59.729Z,60.03
2023-11-10T18:42:44.756Z,59.84
2023-11-10T18:45:29.907Z,61.25
2023-11-10T18:48:14.953Z,61.51
2023-11-10T18:51:00.215Z,61.49
2023-11-10T18:53:45.225Z,61.27
2023-11-10T18:56:30.303Z,62.84
2023-11-10T18:59:15.534Z,63.48
2023-11-10T19:02:00.649Z,61.58
2023-11-10T19:04:45.829Z,61.05
2023-11-10T19:07:30.848Z,61.04
2023-11-10T19:10:16.185Z,60.71
2023-11-10T19:13:01.159Z,59.00
2023-11-10T19:15:46.300Z,58.01
2023-11-10T19:18:31.404Z,58.25
2023-11-10T19:21:16.489Z,58.05
2023-11-10T19:24:01.811Z,58.40
2023-11-10T19:26:46.864Z,58.86
2023-11-10T19:29:32.004Z,59.31
2023-11-10T19:32:17.006Z,58.41
2023-11-10T19:35:02.242Z,59.08
2023-11-10T19:37:47.227Z,59.75
2023-11-10T19:40:32.279Z,59.20
2023-11-10T19:43:17.569Z,58.57
2023-11-10T19:46:02.715Z,57.59
2023-11-10T19:48:47.838Z,59.23
2023-11-10T19:57:08.003Z,60.96
2023-11-10T20:02:41.966Z,61.02
2023-11-10T20:05:27.861Z,61.94
2023-11-10T20:08:12.790Z,61.99
2023-11-10T20:10:57.866Z,62.44
2023-11-10T20:13:42.954Z,61.99
2023-11-10T20:16:27.939Z,61.91
2023-11-10T20:19:13.049Z,61.53
2023-11-10T20:21:58.100Z,61.42
2023-11-10T20:24:43.548Z,61.08
2023-11-10T20:27:28.645Z,61.19
2023-11-10T20:30:13.625Z,60.88
2023-11-10T20:32:58.687Z,60.41
2023-11-10T20:35:43.680Z,61.15
2023-11-10T20:38:28.909Z,61.99
2023-11-10T20:41:13.938Z,62.54
2023-11-10T20:43:59.038Z,61.97
2023-11-10T20:46:44.068Z,61.64
2023-11-10T20:49:29.250Z,62.22
2023-11-10T20:52:14.160Z,62.33
2023-11-10T20:54:59.566Z,61.06
2023-11-10T20:57:44.733Z,60.71
2023-11-10T21:00:29.790Z,60.32
2023-11-10T21:03:14.977Z,58.92
2023-11-10T21:05:59.991Z,57.75
2023-11-10T21:08:45.090Z,58.14
2023-11-10T21:11:30.060Z,59.13
2023-11-10T21:14:15.269Z,60.70
2023-11-10T21:17:00.312Z,62.44
2023-11-10T21:19:45.462Z,61.91
2023-11-10T21:22:30.704Z,62.69
2023-11-10T21:25:15.723Z,62.37
2023-11-10T21:28:00.754Z,61.59
2023-11-10T21:30:45.731Z,61.53
2023-11-10T21:33:31.042Z,61.36
2023-11-10T21:36:15.967Z,61.36
2023-11-10T21:39:01.056Z,61.07
2023-11-10T21:41:46.184Z,61.11
2023-11-10T21:44:31.245Z,61.17
2023-11-10T21:47:16.446Z,62.80
2023-11-10T21:50:01.543Z,63.37
2023-11-10T21:52:46.697Z,64.45
2023-11-10T21:55:31.764Z,64.81
2023-11-10T21:58:16.943Z,65.81
2023-11-10T22:01:02.158Z,65.66
2023-11-10T22:03:47.470Z,63.75
2023-11-10T22:06:32.581Z,63.32
2023-11-10T22:09:17.657Z,63.60
2023-11-10T22:12:04.822Z,63.18
2023-11-10T22:14:50.107Z,63.08
2023-11-10T22:17:35.191Z,63.07
2023-11-10T22:20:20.339Z,63.95
2023-11-10T22:23:05.497Z,64.61
2023-11-10T22:25:50.727Z,65.76
2023-11-10T22:28:35.797Z,65.95
2023-11-10T22:31:20.921Z,66.88
2023-11-10T22:34:06.028Z,66.96
2023-11-10T22:36:51.099Z,66.71
2023-11-10T22:39:36.287Z,66.96
2023-11-10T22:42:21.243Z,66.76
2023-11-10T22:45:06.528Z,65.76
2023-11-10T22:47:51.442Z,65.32
2023-11-10T22:50:36.627Z,64.21
2023-11-10T22:53:21.642Z,65.12
2023-11-10T22:56:06.604Z,65.92
2023-11-10T22:58:51.635Z,65.74
2023-11-10T23:01:36.589Z,66.37
2023-11-10T23:04:21.977Z,67.29
2023-11-10T23:07:06.904Z,67.79
2023-11-10T23:09:51.932Z,67.48
2023-11-10T23:12:37.076Z,67.08
2023-11-10T23:15:22.206Z,65.42
2023-11-10T23:18:07.372Z,65.38
2023-11-10T23:20:52.371Z,65.23
2023-11-10T23:23:37.608Z,64.98
2023-11-10T23:26:22.674Z,65.61
2023-11-10T23:29:07.881Z,64.71
2023-11-10T23:31:52.833Z,65.92
2023-11-10T23:34:37.998Z,64.86
2023-11-10T23:37:23.112Z,64.96
2023-11-10T23:40:08.161Z,65.77
2023-11-10T23:42:53.353Z,67.13
2023-11-10T23:45:38.430Z,68.09
2023-11-10T23:48:23.889Z,67.32
2023-11-10T23:51:08.840Z,68.01
2023-11-10T23:53:54.116Z,66.37
2023-11-10T23:56:39.343Z,66.61
2023-11-10T23:59:24.393Z,64.58
